createdAt,value
2019-04-04T05:06:16.945Z,98728.16
2019-04-04T05:08:44.238Z,98729.56
2019-04-04T05:11:14.291Z,98733.89
2019-04-04T05:13:40.559Z,98736.36
2019-04-04T05:16:08.999Z,98740.17
2019-04-04T05:18:36.278Z,98714.60
2019-04-04T05:21:03.753Z,98705.89
2019-04-04T05:23:30.910Z,98719.44
2019-04-04T05:25:58.064Z,98716.14
2019-04-04T05:28:25.216Z,98704.39
2019-04-04T05:30:52.582Z,98705.69
2019-04-04T05:33:22.621Z,98692.81
2019-04-04T05:35:49.946Z,98707.17
2019-04-04T05:38:17.220Z,98714.05
2019-04-04T05:40:44.470Z,98716.28
2019-04-04T05:43:14.749Z,98711.61
2019-04-04T05:45:40.889Z,98720.69
2019-04-04T05:48:08.250Z,98720.63
2019-04-04T05:50:35.506Z,98718.50
2019-04-04T05:53:04.282Z,98717.96
2019-04-04T05:55:31.836Z,98725.58
2019-04-04T05:57:59.022Z,98718.50
2019-04-04T06:00:27.465Z,98708.41
2019-04-04T06:02:55.333Z,98706.81
2019-04-04T06:05:22.612Z,98711.17
2019-04-04T06:07:50.014Z,98713.34
2019-04-04T06:10:18.539Z,98709.31
2019-04-04T06:12:46.415Z,98716.70
2019-04-04T06:15:13.886Z,98722.69
2019-04-04T06:17:41.161Z,98724.84
2019-04-04T06:20:09.218Z,98728.16
2019-04-04T06:22:36.470Z,98720.50
2019-04-04T06:25:05.216Z,98707.77
2019-04-04T06:27:32.480Z,98700.41
2019-04-04T06:29:59.626Z,98692.77
2019-04-04T06:32:26.780Z,98700.14
2019-04-04T06:34:56.562Z,98698.25
2019-04-04T06:37:23.252Z,98691.44
2019-04-04T06:39:50.710Z,98697.43
2019-04-04T06:42:17.969Z,98698.05
2019-04-04T06:44:45.153Z,98703.77
2019-04-04T06:47:12.307Z,98695.36
2019-04-04T06:49:39.457Z,98697.00
2019-04-04T06:52:09.277Z,98703.83
2019-04-04T06:54:35.897Z,98712.30
2019-04-04T06:57:03.898Z,98721.02
2019-04-04T06:59:32.312Z,98721.80
2019-04-04T07:01:59.966Z,98724.01
2019-04-04T07:04:27.102Z,98712.00
2019-04-04T07:06:54.476Z,98700.27
2019-04-04T07:09:21.683Z,98696.69
2019-04-04T07:11:48.799Z,98694.55
2019-04-04T07:14:15.957Z,98706.52
2019-04-04T07:16:43.153Z,98688.02
2019-04-04T07:19:14.191Z,98679.78
2019-04-04T07:21:39.419Z,98679.85
2019-04-04T07:24:06.657Z,98685.80
2019-04-04T07:26:33.930Z,98688.05
2019-04-04T07:29:01.195Z,98699.72
2019-04-04T07:31:28.342Z,98696.17
2019-04-04T07:33:55.513Z,98703.56
2019-04-04T07:36:22.868Z,98708.11
2019-04-04T07:38:50.086Z,98700.53
2019-04-04T07:41:17.258Z,98709.79
2019-04-04T07:43:44.409Z,98718.80
2019-04-04T07:46:16.565Z,98724.52
2019-04-04T07:48:40.714Z,98723.70
2019-04-04T07:51:08.012Z,98720.71
2019-04-04T07:53:36.444Z,98711.69
2019-04-04T07:56:04.517Z,98714.95
2019-04-04T07:58:31.796Z,98715.50
2019-04-04T08:00:58.982Z,98716.89
2019-04-04T08:03:26.228Z,98719.86
2019-04-04T08:05:53.375Z,98718.49
2019-04-04T08:08:20.626Z,98726.39
2019-04-04T08:10:47.881Z,98735.17
2019-04-04T08:13:15.254Z,98742.98
2019-04-04T08:15:42.507Z,98731.59
2019-04-04T08:18:09.660Z,98729.41
2019-04-04T08:20:37.211Z,98721.05
2019-04-04T08:23:04.499Z,98713.42
2019-04-04T08:25:31.654Z,98715.63
2019-04-04T08:27:58.823Z,98714.00
2019-04-04T08:30:26.396Z,98717.57
2019-04-04T08:32:53.534Z,98716.72
2019-04-04T08:35:20.669Z,98711.85
2019-04-04T08:37:47.961Z,98705.56
2019-04-04T08:40:15.394Z,98706.70
2019-04-04T08:42:42.539Z,98693.38
2019-04-04T08:45:10.103Z,98695.59
2019-04-04T08:47:37.453Z,98695.59
2019-04-04T08:50:05.159Z,98691.52
2019-04-04T08:52:32.417Z,98687.41
2019-04-04T08:54:59.676Z,98688.52
2019-04-04T08:57:27.017Z,98683.66
2019-04-04T08:59:54.161Z,98688.57
2019-04-04T09:02:21.573Z,98693.20
2019-04-04T09:04:48.716Z,98701.94
2019-04-04T09:07:15.880Z,98708.22
2019-04-04T09:09:43.203Z,98712.30
2019-04-04T09:12:10.915Z,98724.84
2019-04-04T09:14:40.944Z,98726.77
2019-04-04T09:17:07.778Z,98721.02
2019-04-04T09:19:35.052Z,98713.66
2019-04-04T09:22:02.569Z,98708.77
2019-04-04T09:24:29.745Z,98695.69
2019-04-04T09:26:57.149Z,98691.59
2019-04-04T09:29:24.409Z,98691.32
2019-04-04T09:31:51.755Z,98707.44
2019-04-04T09:34:19.016Z,98707.99
2019-04-04T09:36:46.283Z,98703.09
2019-04-04T09:39:13.660Z,98684.82
2019-04-04T09:41:40.926Z,98680.17
2019-04-04T09:44:08.285Z,98680.19
2019-04-04T09:46:35.543Z,98685.89
2019-04-04T09:49:03.103Z,98674.99
2019-04-04T09:51:30.359Z,98678.78
2019-04-04T09:53:57.497Z,98665.73
2019-04-04T09:56:24.860Z,98677.41
2019-04-04T09:58:54.772Z,98673.33
2019-04-04T10:01:21.377Z,98667.31
2019-04-04T10:03:48.986Z,98661.83
2019-04-04T10:06:16.252Z,98646.02
2019-04-04T10:08:43.411Z,98644.09
2019-04-04T10:11:10.593Z,98643.23
2019-04-04T10:13:37.842Z,98657.42
2019-04-04T10:16:05.401Z,98660.16
2019-04-04T10:18:32.667Z,98658.96
2019-04-04T10:21:11.119Z,98667.73
2019-04-04T10:23:28.857Z,98678.11
2019-04-04T10:25:56.013Z,98678.41
2019-04-04T10:28:23.565Z,98695.59
2019-04-04T10:30:50.885Z,98696.96
2019-04-04T10:33:18.050Z,98711.39
2019-04-04T10:35:45.319Z,98709.23
2019-04-04T10:38:12.579Z,98705.70
2019-04-04T10:40:39.846Z,98701.58
2019-04-04T10:43:06.983Z,98699.59
2019-04-04T10:45:34.233Z,98706.45
2019-04-04T10:48:01.490Z,98711.93
2019-04-04T10:50:28.732Z,98713.03
2019-04-04T10:52:56.213Z,98723.42
2019-04-04T10:55:23.769Z,98727.02
2019-04-04T10:57:51.014Z,98721.53
2019-04-04T11:00:18.782Z,98731.92
2019-04-04T11:02:45.983Z,98734.66
2019-04-04T11:05:13.634Z,98732.77
2019-04-04T11:07:40.895Z,98731.11
2019-04-04T11:10:08.586Z,98725.10
2019-04-04T11:12:35.829Z,98720.74
2019-04-04T11:15:03.773Z,98724.02
2019-04-04T11:17:30.991Z,98713.62
2019-04-04T11:19:58.253Z,98727.28
2019-04-04T11:22:25.428Z,98723.18
2019-04-04T11:24:52.596Z,98714.69
2019-04-04T11:27:19.763Z,98714.20
2019-04-04T11:29:47.105Z,98707.30
2019-04-04T11:32:14.483Z,98708.14
2019-04-04T11:34:52.663Z,98718.53
2019-04-04T11:37:10.801Z,98730.27
2019-04-04T11:39:38.434Z,98727.81
2019-04-04T11:42:06.078Z,98722.66
2019-04-04T11:44:33.750Z,98710.33
2019-04-04T11:47:01.295Z,98705.44
2019-04-04T11:49:28.553Z,98708.99
2019-04-04T11:51:56.013Z,98705.13
2019-04-04T11:54:23.846Z,98709.23
2019-04-04T11:56:51.392Z,98708.98
2019-04-04T11:59:19.015Z,98728.89
2019-04-04T12:01:46.582Z,98718.53
2019-04-04T12:04:14.719Z,98709.23
2019-04-04T12:06:42.283Z,98711.72
2019-04-04T12:09:09.558Z,98731.66
2019-04-04T12:11:36.890Z,98740.92
2019-04-04T12:14:05.016Z,98749.39
2019-04-04T12:16:32.957Z,98748.86
2019-04-04T12:19:00.456Z,98742.05
2019-04-04T12:21:27.621Z,98732.48
2019-04-04T12:23:54.870Z,98734.90
2019-04-04T12:26:22.139Z,98733.02
2019-04-04T12:28:49.676Z,98735.73
2019-04-04T12:31:17.237Z,98736.00
2019-04-04T12:33:44.698Z,98744.73
2019-04-04T12:36:23.819Z,98772.31
2019-04-04T12:38:41.335Z,98778.05
2019-04-04T12:41:08.790Z,98781.60
2019-04-04T12:43:36.525Z,98784.87
2019-04-04T12:46:03.982Z,98788.43
2019-04-04T12:48:31.544Z,98790.61
2019-04-04T12:50:58.919Z,98784.59
2019-04-04T12:53:26.228Z,98777.23
2019-04-04T12:55:54.315Z,98770.97
2019-04-04T12:58:22.290Z,98776.70
2019-04-04T13:00:49.701Z,98770.97
2019-04-04T13:03:17.195Z,98784.88
2019-04-04T13:05:44.376Z,98801.02
2019-04-04T13:08:11.751Z,98808.64
2019-04-04T13:10:39.279Z,98813.79
2019-04-04T13:13:06.843Z,98814.92
2019-04-04T13:15:34.177Z,98811.36
2019-04-04T13:18:01.576Z,98813.30
2019-04-04T13:20:29.319Z,98812.77
2019-04-04T13:22:56.853Z,98814.66
2019-04-04T13:25:24.207Z,98812.73
2019-04-04T13:27:51.951Z,98823.94
2019-04-04T13:30:19.912Z,98832.94
2019-04-04T13:32:47.233Z,98832.12
2019-04-04T13:35:14.595Z,98833.22
2019-04-04T13:37:42.427Z,98837.84
2019-04-04T13:40:10.212Z,98835.95
2019-04-04T13:42:37.857Z,98828.30
2019-04-04T13:45:07.472Z,98833.48
2019-04-04T13:47:38.097Z,98830.22
2019-04-04T13:50:06.098Z,98821.75
2019-04-04T13:52:34.152Z,98809.77
2019-04-04T13:55:01.505Z,98822.56
2019-04-04T13:57:28.698Z,98845.22
2019-04-04T13:59:55.958Z,98863.25
2019-04-04T14:02:23.478Z,98870.00
2019-04-04T14:04:50.748Z,98853.09
2019-04-04T14:07:18.010Z,98846.86
2019-04-04T14:09:45.361Z,98855.30
2019-04-04T14:12:14.327Z,98865.39
2019-04-04T14:14:42.130Z,98873.53
2019-04-04T14:17:09.414Z,98887.77
2019-04-04T14:19:39.219Z,98901.63
2019-04-04T14:22:06.851Z,98911.77
2019-04-04T14:24:34.469Z,98903.33
2019-04-04T14:27:03.716Z,98898.69
2019-04-04T14:29:31.142Z,98900.85
2019-04-04T14:31:58.409Z,98907.36
2019-04-04T14:34:25.892Z,98901.64
2019-04-04T14:36:55.503Z,98899.19
2019-04-04T14:39:22.940Z,98889.66
2019-04-04T14:41:50.261Z,98886.13
2019-04-04T14:44:17.923Z,98885.02
2019-04-04T14:46:48.314Z,98877.67
2019-04-04T14:49:17.203Z,98868.91
2019-04-04T14:51:48.642Z,98868.09
2019-04-04T14:54:18.417Z,98868.95
2019-04-04T14:56:48.862Z,98867.84
2019-04-04T14:59:16.286Z,98872.25
2019-04-04T15:01:43.693Z,98884.78
2019-04-04T15:04:11.033Z,98907.70
2019-04-04T15:06:38.313Z,98915.34
2019-04-04T15:09:09.105Z,98927.64
2019-04-04T15:11:36.546Z,98921.63
2019-04-04T15:14:03.994Z,98928.45
2019-04-04T15:16:31.664Z,98928.98
2019-04-04T15:18:58.918Z,98919.70
2019-04-04T15:21:26.166Z,98922.69
2019-04-04T15:23:53.347Z,98924.61
2019-04-04T15:26:20.619Z,98928.69
2019-04-04T15:28:48.105Z,98937.44
2019-04-04T15:31:15.631Z,98931.96
2019-04-04T15:33:43.087Z,98924.58
2019-04-04T15:36:10.580Z,98913.66
2019-04-04T15:38:37.871Z,98924.33
2019-04-04T15:41:05.616Z,98939.33
2019-04-04T15:43:32.881Z,98943.17
2019-04-04T15:46:00.226Z,98964.16
2019-04-04T15:48:27.613Z,98960.86
2019-04-04T15:50:59.598Z,98961.66
2019-04-04T15:53:29.827Z,98975.56
2019-04-04T15:56:00.337Z,98983.23
2019-04-04T15:58:27.777Z,98986.48
2019-04-04T16:00:55.184Z,98989.99
2019-04-04T16:03:22.541Z,98986.47
2019-04-04T16:05:49.685Z,98989.42
2019-04-04T16:08:17.127Z,98990.47
2019-04-04T16:10:47.701Z,98993.67
2019-04-04T16:13:15.254Z,98988.84
2019-04-04T16:15:42.413Z,98974.05
2019-04-04T16:18:10.943Z,98977.59
2019-04-04T16:20:38.332Z,98981.17
2019-04-04T16:23:05.611Z,98987.33
2019-04-04T16:25:33.274Z,98993.13
2019-04-04T16:28:00.702Z,98991.45
2019-04-04T16:30:27.903Z,99000.13
2019-04-04T16:32:55.385Z,99001.81
2019-04-04T16:35:22.908Z,99006.77
2019-04-04T16:37:50.390Z,99006.91
2019-04-04T16:40:20.016Z,99012.25
2019-04-04T16:42:47.590Z,99005.39
2019-04-04T16:45:15.085Z,98997.18
2019-04-04T16:47:42.971Z,99002.09
2019-04-04T16:50:11.365Z,99006.27
2019-04-04T16:52:38.790Z,99010.63
2019-04-04T16:55:07.028Z,99012.80
2019-04-04T16:57:34.416Z,99015.75
2019-04-04T17:00:05.351Z,99004.31
2019-04-04T17:02:34.274Z,99008.36
2019-04-04T17:05:01.775Z,99010.22
2019-04-04T17:07:29.145Z,99005.80
2019-04-04T17:09:59.390Z,99014.52
2019-04-04T17:12:26.730Z,99015.66
2019-04-04T17:14:53.991Z,99023.84
2019-04-04T17:17:21.379Z,99030.87
2019-04-04T17:19:48.697Z,99035.81
2019-04-04T17:22:15.979Z,99036.38
2019-04-04T17:24:43.473Z,99042.08
2019-04-04T17:27:10.757Z,99033.92
2019-04-04T17:29:38.527Z,99031.68
2019-04-04T17:32:06.400Z,99043.38
2019-04-04T17:34:34.063Z,99041.75
2019-04-04T17:37:01.536Z,99049.12
2019-04-04T17:39:28.963Z,99043.38
2019-04-04T17:41:56.126Z,99048.03
2019-04-04T17:44:23.997Z,99057.45
2019-04-04T17:46:51.716Z,99074.05
2019-04-04T17:49:19.250Z,99073.69
2019-04-04T17:51:46.911Z,99074.79
2019-04-04T17:54:14.357Z,99071.80
2019-04-04T17:56:42.121Z,99076.41
2019-04-04T17:59:09.554Z,99083.17
2019-04-04T18:01:38.229Z,99089.72
2019-04-04T18:04:05.701Z,99095.69
2019-04-04T18:06:32.850Z,99097.86
2019-04-04T18:09:00.095Z,99103.58
2019-04-04T18:11:27.537Z,99108.75
2019-04-04T18:13:54.794Z,99108.47
2019-04-04T18:16:22.046Z,99115.98
2019-04-04T18:18:49.568Z,99112.77
2019-04-04T18:21:17.138Z,99118.81
2019-04-04T18:23:44.860Z,99111.70
2019-04-04T18:26:12.356Z,99115.16
2019-04-04T18:28:39.836Z,99119.55
2019-04-04T18:31:07.220Z,99121.88
2019-04-04T18:33:36.698Z,99122.97
2019-04-04T18:36:04.670Z,99122.97
2019-04-04T18:38:32.118Z,99129.78
2019-04-04T18:40:59.810Z,99130.92
2019-04-04T18:43:27.081Z,99138.83
2019-04-04T18:45:55.879Z,99142.00
2019-04-04T18:48:23.184Z,99144.44
2019-04-04T18:51:00.283Z,99147.65
2019-04-04T18:53:29.534Z,99148.52
2019-04-04T18:55:59.917Z,99151.45
2019-04-04T18:58:27.700Z,99158.54
2019-04-04T19:00:55.292Z,99166.62
2019-04-04T19:03:23.753Z,99166.89
2019-04-04T19:05:52.745Z,99166.40
2019-04-04T19:08:23.081Z,99170.17
2019-04-04T19:10:52.966Z,99177.77
2019-04-04T19:13:20.495Z,99173.69
2019-04-04T19:15:49.316Z,99174.25
2019-04-04T19:18:16.827Z,99177.47
2019-04-04T19:20:44.420Z,99175.29
2019-04-04T19:23:12.035Z,99174.52
2019-04-04T19:25:39.553Z,99164.16
2019-04-04T19:28:10.220Z,99175.31
2019-04-04T19:30:38.553Z,99166.87
2019-04-04T19:33:06.360Z,99172.31
2019-04-04T19:35:41.589Z,99175.67
2019-04-04T19:38:11.695Z,99189.64
2019-04-04T19:40:41.196Z,99196.74
2019-04-04T19:43:18.288Z,99205.96
2019-04-04T19:45:43.363Z,99205.70
2019-04-04T19:48:10.853Z,99200.27
2019-04-04T19:50:39.325Z,99195.08
2019-04-04T19:53:07.200Z,99193.16
2019-04-04T19:55:34.562Z,99203.19
2019-04-04T19:58:01.841Z,99210.78
2019-04-04T20:00:31.998Z,99217.28
2019-04-04T20:02:58.350Z,99223.83
2019-04-04T20:05:26.058Z,99221.64
2019-04-04T20:07:53.637Z,99227.98
2019-04-04T20:10:21.058Z,99232.55
2019-04-04T20:12:48.428Z,99235.66
2019-04-04T20:15:15.990Z,99244.25
2019-04-04T20:17:43.214Z,99237.42
2019-04-04T20:20:11.183Z,99241.59
2019-04-04T20:22:38.946Z,99238.81
2019-04-04T20:25:06.631Z,99232.24
2019-04-04T20:27:34.095Z,99235.36
2019-04-04T20:30:01.652Z,99229.80
2019-04-04T20:32:29.019Z,99233.83
2019-04-04T20:34:56.423Z,99250.41
2019-04-04T20:37:23.814Z,99255.67
2019-04-04T20:39:51.065Z,99249.59
2019-04-04T20:42:18.307Z,99247.14
2019-04-04T20:44:45.537Z,99248.23
2019-04-04T20:47:12.955Z,99249.59
2019-04-04T20:49:40.228Z,99242.76
2019-04-04T20:52:07.667Z,99242.50
2019-04-04T20:54:35.038Z,99226.89
2019-04-04T20:57:02.526Z,99233.69
2019-04-04T20:59:29.801Z,99242.13
2019-04-04T21:01:57.785Z,99240.97
2019-04-04T21:04:25.058Z,99232.64
2019-04-04T21:06:53.832Z,99230.23
2019-04-04T21:09:21.268Z,99230.72
2019-04-04T21:11:48.749Z,99224.99
2019-04-04T21:14:16.113Z,99225.45
2019-04-04T21:16:43.622Z,99240.46
2019-04-04T21:19:10.924Z,99239.30
2019-04-04T21:21:38.210Z,99245.05
2019-04-04T21:24:06.619Z,99242.64
2019-04-04T21:26:33.941Z,99248.28
2019-04-04T21:29:01.112Z,99248.53
2019-04-04T21:31:28.764Z,99252.64
2019-04-04T21:33:56.144Z,99252.08
2019-04-04T21:36:23.501Z,99248.79
2019-04-04T21:38:51.111Z,99241.83
2019-04-04T21:41:18.382Z,99244.71
2019-04-04T21:43:45.674Z,99243.69
2019-04-04T21:46:12.930Z,99245.81
2019-04-04T21:48:40.476Z,99248.19
2019-04-04T21:51:07.748Z,99255.16
2019-04-04T21:53:35.223Z,99266.38
2019-04-04T21:56:02.647Z,99274.28
2019-04-04T21:58:30.249Z,99278.08
2019-04-04T22:00:58.940Z,99280.26
2019-04-04T22:03:32.110Z,99281.24
2019-04-04T22:05:59.990Z,99293.48
2019-04-04T22:08:27.318Z,99291.80
2019-04-04T22:10:54.711Z,99294.84
2019-04-04T22:13:21.998Z,99291.84
2019-04-04T22:15:49.395Z,99296.61
2019-04-04T22:18:16.615Z,99301.80
2019-04-04T22:20:45.093Z,99306.16
2019-04-04T22:23:17.603Z,99302.14
2019-04-04T22:25:45.203Z,99304.52
2019-04-04T22:28:15.539Z,99294.96
2019-04-04T22:30:43.900Z,99302.77
2019-04-04T22:33:11.157Z,99295.00
2019-04-04T22:35:38.517Z,99292.53
2019-04-04T22:38:05.918Z,99289.75
2019-04-04T22:40:33.612Z,99290.89
2019-04-04T22:43:00.897Z,99292.97
2019-04-04T22:45:28.261Z,99286.23
2019-04-04T22:47:55.663Z,99285.66
2019-04-04T22:50:22.830Z,99285.70
2019-04-04T22:52:50.690Z,99291.25
2019-04-04T22:55:18.055Z,99290.14
2019-04-04T22:57:45.554Z,99300.66
2019-04-04T23:00:13.724Z,99302.12
2019-04-04T23:02:40.868Z,99305.70
2019-04-04T23:05:11.602Z,99310.85
2019-04-04T23:07:39.092Z,99308.63
2019-04-04T23:10:08.270Z,99314.75
2019-04-04T23:12:35.867Z,99312.31
2019-04-04T23:15:04.001Z,99315.28
2019-04-04T23:17:31.413Z,99312.67
2019-04-04T23:19:58.574Z,99315.17
2019-04-04T23:22:25.997Z,99318.17
2019-04-04T23:24:53.280Z,99322.22
2019-04-04T23:27:20.431Z,99327.69
2019-04-04T23:29:47.828Z,99334.73
2019-04-04T23:32:15.402Z,99344.78
2019-04-04T23:34:42.552Z,99344.53
2019-04-04T23:37:10.034Z,99347.06
2019-04-04T23:39:37.229Z,99351.03
2019-04-04T23:42:05.012Z,99352.89
2019-04-04T23:44:32.158Z,99356.66
2019-04-04T23:46:59.440Z,99353.90
2019-04-04T23:49:26.648Z,99361.63
2019-04-04T23:51:53.824Z,99358.47
2019-04-04T23:54:20.980Z,99357.19
2019-04-04T23:56:48.221Z,99358.66
2019-04-04T23:59:15.429Z,99354.62
